Time;durP1;ratioP1;P1;durP2;ratioP2;P2;SDS_P1;SDS_P2;PMS_P1;PMS_P2;Temp;Humidity;BMP_temperature;BMP_pressure;BME280_temperature;BME280_humidity;BME280_pressure;Samples;Min_cycle;Max_cycle;Signal;HPM_P1;HPM_P2
2022/01/31 00:01:08;;;;;;;14.13;1.90;;;;;;;2.74;75.20;100133.06;4991693;28;20045;-79
2022/01/31 00:03:34;;;;;;;8.93;2.50;;;;;;;3.02;74.95;100177.25;4975440;28;20038;-81
2022/01/31 00:06:01;;;;;;;9.93;2.70;;;;;;;2.99;75.15;100165.19;4974728;28;20129;-80
2022/01/31 00:08:27;;;;;;;6.73;2.40;;;;;;;3.03;74.76;100169.69;4975864;28;20034;-79
2022/01/31 00:10:52;;;;;;;15.70;4.17;;;;;;;2.83;74.87;100135.28;4972094;28;20572;-80
2022/01/31 00:13:36;;;;;;;8.13;2.23;;;;;;;3.07;75.08;100186.94;4974945;28;20030;-79
2022/01/31 00:16:02;;;;;;;10.00;2.70;;;;;;;3.12;75.08;100196.56;4974989;28;20038;-78
2022/01/31 00:18:28;;;;;;;10.97;2.47;;;;;;;2.97;75.41;100182.03;4990997;28;20035;-77
2022/01/31 00:20:53;;;;;;;7.83;2.30;;;;;;;3.03;75.33;100194.31;4991429;28;20409;-78
2022/01/31 00:23:19;;;;;;;17.20;5.57;;;;;;;2.93;75.32;100180.09;4991333;28;20061;-79
2022/01/31 00:25:44;;;;;;;8.70;3.30;;;;;;;2.98;75.61;100206.78;4975054;28;20428;-76
2022/01/31 00:28:10;;;;;;;12.97;3.00;;;;;;;2.90;76.36;100206.28;4989720;28;20050;-76
2022/01/31 00:30:35;;;;;;;18.23;2.83;;;;;;;2.46;76.54;100155.91;4994068;28;20105;-77
2022/01/31 00:33:01;;;;;;;13.33;2.87;;;;;;;2.58;77.80;100215.31;4993007;28;20045;-77
2022/01/31 00:35:26;;;;;;;6.57;2.30;;;;;;;2.23;78.45;100174.78;4993730;28;20088;-78
2022/01/31 00:37:53;;;;;;;11.27;3.77;;;;;;;2.15;79.24;100171.72;4989822;28;20039;-79
2022/01/31 00:40:19;;;;;;;7.10;3.07;;;;;;;2.01;79.72;100160.66;4992186;28;20030;-78
2022/01/31 00:42:45;;;;;;;13.60;3.03;;;;;;;2.28;79.61;100190.38;4992168;28;20126;-77
2022/01/31 00:45:23;;;;;;;13.13;3.17;;;;;;;2.29;79.97;100200.66;4990595;28;20054;-75
2022/01/31 00:47:59;;;;;;;7.10;2.83;;;;;;;1.81;80.19;100120.25;4973742;28;20063;-76
2022/01/31 00:50:24;;;;;;;9.73;3.23;;;;;;;2.03;80.67;100178.56;4982301;28;20469;-77
2022/01/31 00:52:50;;;;;;;9.80;3.30;;;;;;;1.89;80.67;100162.38;4993078;28;20117;-78
2022/01/31 00:55:16;;;;;;;9.70;2.63;;;;;;;2.15;80.49;100207.38;4993254;28;20034;-78
2022/01/31 00:57:45;;;;;;;12.10;3.00;;;;;;;1.83;80.65;100157.75;4993137;28;20054;-77
2022/01/31 01:00:12;;;;;;;10.13;3.00;;;;;;;2.13;80.42;100210.63;4993084;28;20118;-77
2022/01/31 01:02:38;;;;;;;12.20;2.80;;;;;;;2.08;80.74;100210.31;4975577;28;20034;-77
2022/01/31 01:05:04;;;;;;;9.73;3.00;;;;;;;1.97;80.75;100179.06;4993075;28;20057;-78
2022/01/31 01:07:31;;;;;;;8.93;3.03;;;;;;;2.17;80.13;100210.94;5010271;28;20112;-78
2022/01/31 01:09:56;;;;;;;9.70;3.00;;;;;;;1.60;79.90;100115.50;5032253;28;20487;-77
2022/01/31 01:12:22;;;;;;;9.63;2.50;;;;;;;2.20;79.76;100210.25;5032383;28;20032;-76
2022/01/31 01:14:49;;;;;;;11.87;2.87;;;;;;;2.31;79.39;100210.97;5031630;28;20649;-78
2022/01/31 01:17:15;;;;;;;12.40;3.03;;;;;;;2.38;78.76;100210.56;5031904;28;20036;-77
2022/01/31 01:19:41;;;;;;;12.20;2.40;;;;;;;2.38;78.68;100213.09;5014497;28;20411;-78
2022/01/31 01:22:07;;;;;;;11.37;2.83;;;;;;;2.45;78.54;100212.72;5031934;28;20543;-78
2022/01/31 01:24:32;;;;;;;15.10;3.30;;;;;;;2.49;78.44;100214.69;5031829;28;20109;-79
2022/01/31 01:26:58;;;;;;;14.30;4.70;;;;;;;2.27;79.62;100212.44;5031804;28;20025;-78
2022/01/31 01:29:23;;;;;;;17.13;3.53;;;;;;;1.75;81.53;100166.53;5032034;28;20479;-76
2022/01/31 01:31:50;;;;;;;13.33;2.80;;;;;;;1.97;81.93;100219.78;4989896;28;20133;-78
2022/01/31 01:34:16;;;;;;;11.40;3.10;;;;;;;1.98;81.93;100221.56;4973747;28;20038;-78
2022/01/31 01:36:44;;;;;;;14.33;3.97;;;;;;;1.98;81.70;100203.75;4973614;28;20041;-78
2022/01/31 01:39:09;;;;;;;12.33;3.13;;;;;;;2.04;81.94;100205.78;4973713;28;20512;-77
2022/01/31 01:41:35;;;;;;;12.13;2.73;;;;;;;1.98;82.24;100203.75;4989742;28;20038;-78
2022/01/31 01:44:00;;;;;;;15.13;3.87;;;;;;;1.96;82.69;100212.03;4989642;28;20034;-77
2022/01/31 01:46:26;;;;;;;14.77;3.50;;;;;;;1.90;82.78;100205.75;4973468;28;20515;-81
2022/01/31 01:48:51;;;;;;;15.13;5.30;;;;;;;1.94;82.63;100206.84;4989820;28;20531;-78
2022/01/31 01:51:17;;;;;;;8.10;3.17;;;;;;;1.91;82.89;100199.88;4984976;28;20117;-77
2022/01/31 01:53:43;;;;;;;15.10;3.33;;;;;;;1.68;83.01;100160.16;4973372;28;20053;-77
2022/01/31 01:56:09;;;;;;;9.67;3.33;;;;;;;1.94;83.23;100211.94;4989541;28;20030;-78
2022/01/31 01:58:40;;;;;;;8.90;3.87;;;;;;;1.83;83.62;100206.09;4989085;28;20406;-74
2022/01/31 02:01:07;;;;;;;9.97;3.10;;;;;;;1.53;84.17;100169.28;4973225;28;20038;-77
2022/01/31 02:03:36;;;;;;;12.60;3.70;;;;;;;1.79;84.39;100214.31;5006952;28;20571;-77
2022/01/31 02:06:02;;;;;;;9.87;3.50;;;;;;;1.79;84.32;100219.41;5011376;28;20514;-75
2022/01/31 02:08:28;;;;;;;11.43;3.70;;;;;;;1.79;84.42;100221.97;5009616;28;20343;-76
2022/01/31 02:10:54;;;;;;;13.20;3.80;;;;;;;1.86;84.28;100219.06;5010080;28;20030;-77
2022/01/31 02:13:20;;;;;;;15.00;3.70;;;;;;;1.71;84.81;100218.03;5010226;28;20128;-74
2022/01/31 02:15:50;;;;;;;13.27;3.83;;;;;;;1.69;84.83;100217.03;5009992;28;20564;-71
2022/01/31 02:18:16;;;;;;;12.45;3.22;;;;;;;1.66;85.02;100206.63;5011497;28;20088;-73
2022/01/31 02:20:42;;;;;;;12.10;3.70;;;;;;;1.58;85.13;100193.38;5011226;28;20107;-72
2022/01/31 02:23:12;;;;;;;14.53;3.83;;;;;;;1.72;85.15;100213.03;5011104;28;20711;-76
2022/01/31 02:26:04;;;;;;;14.23;4.93;;;;;;;1.80;84.66;100216.09;5010870;28;20493;-73
2022/01/31 02:28:34;;;;;;;11.57;3.10;;;;;;;1.71;84.08;100185.81;5011096;28;20022;-76
2022/01/31 02:31:00;;;;;;;12.95;4.10;;;;;;;2.05;83.60;100235.56;5011327;28;20400;-79
2022/01/31 02:33:27;;;;;;;19.17;3.87;;;;;;;2.15;83.01;100237.06;5011317;28;20046;-74
2022/01/31 02:35:55;;;;;;;16.07;3.70;;;;;;;2.02;82.92;100207.34;5010695;28;20568;-75
2022/01/31 02:38:20;;;;;;;11.40;3.57;;;;;;;1.97;82.23;100195.97;5010900;28;20034;-75
2022/01/31 02:40:46;;;;;;;28.00;4.17;;;;;;;2.16;81.98;100228.66;5010904;28;20033;-76
2022/01/31 02:43:34;;;;;;;13.10;3.60;;;;;;;2.08;82.66;100236.66;5011295;28;20046;-75
2022/01/31 02:46:01;;;;;;;10.13;3.47;;;;;;;2.14;82.42;100255.69;5009485;28;20034;-75
2022/01/31 02:48:29;;;;;;;13.87;4.77;;;;;;;2.05;82.81;100240.66;5008933;28;20033;-75
2022/01/31 02:50:56;;;;;;;9.40;3.72;;;;;;;2.05;82.88;100244.09;5010977;28;20049;-78
2022/01/31 02:55:47;;;;;;;15.63;4.23;;;;;;;1.94;83.08;100230.66;5010970;28;20033;-76
2022/01/31 02:58:13;;;;;;;16.53;3.90;;;;;;;1.95;83.27;100241.72;5010565;28;20026;-74
2022/01/31 03:00:39;;;;;;;9.50;3.60;;;;;;;1.98;83.25;100239.38;5011307;28;20018;-76
2022/01/31 03:03:05;;;;;;;11.57;3.90;;;;;;;1.94;83.21;100239.94;5009418;28;20038;-74
2022/01/31 03:05:31;;;;;;;10.37;3.57;;;;;;;1.81;83.81;100235.69;5010631;28;20037;-74
2022/01/31 03:07:57;;;;;;;12.73;4.00;;;;;;;1.78;84.09;100238.91;5010578;28;20460;-73
2022/01/31 03:10:23;;;;;;;13.00;5.57;;;;;;;1.77;83.78;100244.78;5010657;28;20069;-74
2022/01/31 03:12:48;;;;;;;12.47;3.93;;;;;;;1.63;83.93;100226.78;5010612;28;20041;-79
2022/01/31 03:15:14;;;;;;;19.57;5.97;;;;;;;1.73;84.44;100241.91;5010862;28;20476;-76
2022/01/31 03:17:42;;;;;;;17.17;4.87;;;;;;;1.75;84.46;100256.50;5008757;28;20531;-77
2022/01/31 03:20:09;;;;;;;18.10;4.57;;;;;;;1.68;84.58;100235.63;5010479;28;20026;-73
2022/01/31 03:22:34;;;;;;;19.47;5.27;;;;;;;1.73;84.43;100245.34;5013441;28;20033;-74
2022/01/31 03:25:00;;;;;;;16.03;4.60;;;;;;;1.71;84.63;100251.97;5013384;28;20522;-74
2022/01/31 03:27:25;;;;;;;14.13;4.70;;;;;;;1.54;84.82;100245.72;5014483;28;20627;-75
2022/01/31 03:29:51;;;;;;;13.77;4.63;;;;;;;1.60;85.01;100253.78;5014307;28;20034;-76
2022/01/31 03:32:16;;;;;;;18.30;4.63;;;;;;;1.51;84.46;100254.78;5013903;28;20033;-75
2022/01/31 03:34:42;;;;;;;13.77;3.93;;;;;;;1.36;84.86;100250.41;5009023;28;20028;-77
2022/01/31 03:37:07;;;;;;;11.63;3.73;;;;;;;1.53;84.31;100274.47;4995448;28;20490;-77
2022/01/31 03:39:32;;;;;;;17.43;4.17;;;;;;;1.54;84.31;100260.97;5013746;28;20024;-77
2022/01/31 03:41:58;;;;;;;11.50;3.90;;;;;;;1.18;83.95;100209.31;5013606;28;20101;-77
2022/01/31 03:44:24;;;;;;;13.53;3.90;;;;;;;1.57;83.44;100266.31;5013347;28;20048;-74
2022/01/31 03:46:49;;;;;;;17.57;4.20;;;;;;;1.63;83.17;100270.03;5013606;28;20026;-81
2022/01/31 03:49:14;;;;;;;22.30;4.77;;;;;;;1.62;82.97;100259.00;5013828;28;20025;-75
2022/01/31 03:51:40;;;;;;;17.30;4.47;;;;;;;1.63;82.44;100244.59;4996187;28;20061;-74
2022/01/31 03:54:05;;;;;;;14.60;4.23;;;;;;;1.65;82.09;100269.38;5013976;28;20030;-77
2022/01/31 03:56:31;;;;;;;24.27;4.47;;;;;;;1.74;82.28;100266.56;4999990;28;20040;-75
2022/01/31 03:58:56;;;;;;;7.80;4.07;;;;;;;1.33;81.05;100178.97;4976681;28;20084;-75
2022/01/31 04:01:26;;;;;;;10.23;4.30;;;;;;;1.82;81.51;100252.72;4993783;28;20484;-76
2022/01/31 04:03:51;;;;;;;17.98;4.70;;;;;;;1.82;80.95;100242.53;4994307;28;20034;-77
2022/01/31 04:06:17;;;;;;;11.47;4.30;;;;;;;1.76;80.07;100227.72;4994006;28;20057;-75
2022/01/31 04:08:43;;;;;;;11.90;3.63;;;;;;;1.72;79.67;100215.59;4988003;28;20112;-78
2022/01/31 04:11:10;;;;;;;13.93;4.47;;;;;;;1.96;79.54;100255.31;4996298;28;20030;-81
2022/01/31 04:13:36;;;;;;;16.80;4.60;;;;;;;1.89;79.61;100259.97;5013642;28;20380;-78
2022/01/31 04:16:02;;;;;;;13.73;4.40;;;;;;;1.62;79.33;100256.44;5006092;28;20030;-78
2022/01/31 04:18:27;;;;;;;17.50;4.27;;;;;;;1.51;80.31;100298.03;4993973;28;20404;-78
2022/01/31 04:20:53;;;;;;;11.13;4.27;;;;;;;1.18;81.50;100292.34;4989901;28;20037;-78
2022/01/31 04:23:20;;;;;;;16.60;4.70;;;;;;;0.91;83.25;100294.66;5013487;28;20038;-77
2022/01/31 04:28:22;;;;;;;12.43;3.77;;;;;;;0.84;84.59;100282.31;5007107;28;20517;-77
2022/01/31 04:31:13;;;;;;;29.13;4.50;;;;;;;1.14;83.88;100281.06;5008459;28;20023;-76
2022/01/31 04:33:39;;;;;;;17.33;3.80;;;;;;;0.99;82.87;100224.94;4992065;28;20026;-77
2022/01/31 04:36:05;;;;;;;18.70;4.37;;;;;;;1.44;82.30;100295.06;4975767;28;20027;-77
2022/01/31 04:38:30;;;;;;;13.93;3.83;;;;;;;1.42;82.60;100296.63;4975771;28;20041;-77
2022/01/31 04:40:56;;;;;;;16.83;4.07;;;;;;;1.43;81.93;100288.25;5007389;28;20037;-76
2022/01/31 04:43:21;;;;;;;15.00;4.10;;;;;;;1.54;81.89;100288.97;5012591;28;20503;-77
2022/01/31 04:45:48;;;;;;;13.63;4.30;;;;;;;1.58;80.98;100287.53;5002421;28;20038;-75
2022/01/31 04:48:15;;;;;;;20.20;4.20;;;;;;;1.52;81.22;100292.19;4993350;28;20034;-76
2022/01/31 04:50:41;;;;;;;19.73;3.73;;;;;;;1.26;80.99;100237.84;4993048;28;20418;-78
2022/01/31 04:53:07;;;;;;;22.90;4.53;;;;;;;1.37;80.64;100242.03;4998654;28;20408;-77
2022/01/31 04:55:32;;;;;;;16.33;3.73;;;;;;;1.65;81.01;100292.28;4999790;28;20034;-77
2022/01/31 04:57:58;;;;;;;18.17;5.40;;;;;;;1.57;80.55;100286.66;4993159;28;20038;-77
2022/01/31 05:00:24;;;;;;;13.27;3.90;;;;;;;1.66;79.77;100290.59;4993508;28;20386;-80
2022/01/31 05:02:50;;;;;;;18.53;3.77;;;;;;;1.63;79.66;100300.59;4954895;28;20082;-77
2022/01/31 05:05:15;;;;;;;25.47;4.10;;;;;;;1.72;79.84;100303.75;4954893;28;20086;-77
2022/01/31 05:07:41;;;;;;;14.40;3.90;;;;;;;1.67;79.70;100294.91;4971580;28;20608;-76
2022/01/31 05:10:07;;;;;;;14.20;4.13;;;;;;;1.67;79.66;100303.47;4951438;29;20042;-76
2022/01/31 05:12:32;;;;;;;16.30;4.00;;;;;;;1.55;79.79;100293.28;4935653;29;20418;-76
2022/01/31 05:14:58;;;;;;;18.97;4.17;;;;;;;1.64;79.51;100303.22;4951717;29;20035;-75
2022/01/31 05:17:23;;;;;;;15.13;4.33;;;;;;;1.34;80.64;100290.13;4962665;28;20053;-75
2022/01/31 05:19:49;;;;;;;13.77;4.63;;;;;;;1.35;80.46;100307.16;4970376;28;20063;-76
2022/01/31 05:22:14;;;;;;;15.20;3.90;;;;;;;1.29;81.10;100320.31;4970502;28;20031;-76
2022/01/31 05:24:40;;;;;;;14.93;3.50;;;;;;;1.25;81.09;100309.81;4970421;28;20477;-77
2022/01/31 05:27:05;;;;;;;24.33;7.60;;;;;;;1.42;80.99;100326.25;4935643;28;20027;-75
2022/01/31 05:29:30;;;;;;;40.70;15.30;;;;;;;1.25;80.77;100285.25;4970199;28;20113;-77
2022/01/31 05:31:56;;;;;;;22.47;7.43;;;;;;;1.38;80.90;100324.28;4969129;28;20142;-72
2022/01/31 05:34:24;;;;;;;18.30;5.30;;;;;;;1.33;80.74;100331.59;4970149;28;20038;-75
2022/01/31 05:36:51;;;;;;;24.03;9.30;;;;;;;1.34;80.71;100333.34;4969970;28;20493;-76
2022/01/31 05:39:17;;;;;;;26.67;8.93;;;;;;;1.37;80.94;100341.22;4973487;28;20033;-74
2022/01/31 05:41:43;;;;;;;11.30;4.70;;;;;;;1.32;80.54;100326.41;4993702;28;20026;-76
2022/01/31 05:44:08;;;;;;;20.63;5.00;;;;;;;1.39;80.44;100337.09;5011312;28;20030;-76
2022/01/31 05:46:33;;;;;;;12.47;4.40;;;;;;;1.36;80.23;100329.28;5011497;28;20045;-77
2022/01/31 05:48:59;;;;;;;14.53;4.37;;;;;;;1.34;81.21;100338.44;5011296;28;20040;-77
2022/01/31 05:51:24;;;;;;;22.37;6.57;;;;;;;1.20;81.81;100345.09;4993358;28;20056;-77
2022/01/31 05:53:50;;;;;;;11.80;5.57;;;;;;;1.10;81.89;100323.19;5010585;28;20030;-76
2022/01/31 05:56:17;;;;;;;13.63;4.50;;;;;;;1.05;82.45;100349.06;4958591;28;20090;-72
2022/01/31 05:58:44;;;;;;;22.67;6.83;;;;;;;1.01;83.26;100342.88;4944252;28;20462;-76
2022/01/31 06:01:10;;;;;;;14.27;4.43;;;;;;;0.93;82.80;100346.50;4960377;28;20042;-75
2022/01/31 06:03:37;;;;;;;14.80;4.23;;;;;;;0.90;82.58;100339.53;4942654;28;20073;-76
2022/01/31 06:06:03;;;;;;;21.30;9.50;;;;;;;0.99;82.73;100348.63;4960290;28;20031;-77
2022/01/31 06:08:29;;;;;;;16.07;4.53;;;;;;;1.05;82.18;100344.00;4957334;28;20034;-76
2022/01/31 06:10:54;;;;;;;7.70;3.00;;;;;;;1.21;81.21;100356.13;4958923;28;20043;-76
2022/01/31 06:13:24;;;;;;;9.77;3.63;;;;;;;1.28;80.84;100353.25;4956159;28;20038;-78
2022/01/31 06:15:50;;;;;;;9.70;2.72;;;;;;;1.48;79.81;100359.78;4942346;28;20506;-75
2022/01/31 06:18:17;;;;;;;15.07;3.37;;;;;;;1.58;78.98;100357.13;4958035;28;20101;-75
2022/01/31 06:20:44;;;;;;;22.73;4.10;;;;;;;1.63;78.63;100371.84;4959094;28;20114;-75
2022/01/31 06:23:10;;;;;;;16.17;4.80;;;;;;;1.75;77.70;100370.16;4942629;28;20106;-76
2022/01/31 06:25:36;;;;;;;16.57;3.20;;;;;;;1.85;77.40;100384.41;4960435;28;20453;-78
2022/01/31 06:28:04;;;;;;;11.97;3.17;;;;;;;1.94;76.80;100380.88;5000585;28;20582;-75
2022/01/31 06:30:30;;;;;;;17.90;3.43;;;;;;;2.04;76.45;100381.50;5010758;28;20065;-76
2022/01/31 06:32:55;;;;;;;14.40;3.33;;;;;;;2.00;76.03;100362.56;5008414;28;20061;-74
2022/01/31 06:35:21;;;;;;;9.83;3.07;;;;;;;2.17;75.66;100376.47;5010390;28;20026;-76
2022/01/31 06:37:46;;;;;;;10.13;3.27;;;;;;;2.25;74.78;100374.44;5003634;28;20416;-76
2022/01/31 06:40:12;;;;;;;10.63;3.07;;;;;;;2.37;74.09;100372.75;5002186;28;20046;-75
2022/01/31 06:42:38;;;;;;;11.60;3.73;;;;;;;2.32;74.29;100347.72;5005230;28;20046;-75
2022/01/31 06:45:05;;;;;;;9.20;3.00;;;;;;;2.56;73.66;100366.34;5001109;28;20072;-75
2022/01/31 06:47:30;;;;;;;13.60;3.70;;;;;;;2.49;73.15;100331.03;5002307;28;20037;-74
2022/01/31 06:49:56;;;;;;;17.70;3.63;;;;;;;2.72;72.84;100345.31;4987283;28;20046;-77
2022/01/31 06:52:22;;;;;;;17.70;3.60;;;;;;;2.72;72.15;100330.91;4987507;28;20046;-75
2022/01/31 06:54:50;;;;;;;12.27;3.53;;;;;;;2.82;71.92;100351.91;4973835;28;20197;-73
2022/01/31 06:57:18;;;;;;;9.30;3.60;;;;;;;2.99;71.90;100366.66;4990559;28;20034;-74
2022/01/31 06:59:44;;;;;;;8.03;3.10;;;;;;;2.91;71.36;100319.34;4994885;28;20038;-75
2022/01/31 07:02:09;;;;;;;14.47;2.90;;;;;;;3.10;70.42;100335.84;4993949;28;20198;-76
2022/01/31 07:04:34;;;;;;;14.23;3.30;;;;;;;3.24;70.47;100341.06;4994265;28;20048;-74
2022/01/31 07:07:00;;;;;;;11.77;2.83;;;;;;;3.06;70.01;100311.81;4991587;28;20061;-76
2022/01/31 07:09:26;;;;;;;10.33;3.37;;;;;;;3.30;69.61;100321.81;4992348;28;20033;-76
2022/01/31 07:11:55;;;;;;;10.77;3.30;;;;;;;3.48;68.68;100345.97;5001333;28;20058;-77
2022/01/31 07:14:39;;;;;;;7.27;2.60;;;;;;;3.51;68.96;100333.38;4996367;28;20108;-76
2022/01/31 07:17:06;;;;;;;9.23;3.33;;;;;;;3.68;67.74;100351.44;4988222;28;20026;-78
2022/01/31 07:19:35;;;;;;;9.27;2.65;;;;;;;3.56;68.21;100305.59;4971084;28;20022;-72
2022/01/31 07:22:04;;;;;;;17.20;3.10;;;;;;;3.84;67.52;100343.06;4988504;28;20461;-76
2022/01/31 07:24:45;;;;;;;18.15;2.70;;;;;;;3.92;67.57;100346.97;4971276;28;20088;-76
2022/01/31 07:27:11;;;;;;;11.32;2.55;;;;;;;4.02;66.59;100328.84;4988581;28;20023;-76
2022/01/31 07:29:38;;;;;;;10.80;3.30;;;;;;;4.08;66.36;100353.91;4971196;28;20030;-74
2022/01/31 07:32:07;;;;;;;10.38;3.08;;;;;;;4.20;66.14;100352.09;4988101;28;20445;-74
2022/01/31 07:34:33;;;;;;;2.92;1.88;;;;;;;4.15;65.43;100333.03;4988739;28;20030;-75
2022/01/31 07:36:58;;;;;;;9.68;2.20;;;;;;;4.35;65.28;100352.13;4988754;28;20565;-76
2022/01/31 07:39:24;;;;;;;8.38;2.33;;;;;;;3.94;64.66;100268.78;4988762;28;20034;-76
2022/01/31 07:41:50;;;;;;;8.88;2.28;;;;;;;4.53;64.39;100357.44;4988556;28;20025;-76
2022/01/31 07:44:16;;;;;;;5.00;2.15;;;;;;;4.48;63.00;100363.09;4970597;28;20412;-75
2022/01/31 07:46:41;;;;;;;6.93;2.38;;;;;;;4.58;62.83;100354.28;4971210;28;20084;-74
2022/01/31 07:49:09;;;;;;;6.70;1.95;;;;;;;4.65;62.76;100352.19;4966426;28;20046;-75
2022/01/31 07:51:38;;;;;;;3.90;1.83;;;;;;;4.60;62.73;100327.13;4966417;28;20598;-76
2022/01/31 07:54:04;;;;;;;8.77;2.58;;;;;;;4.77;62.26;100330.66;4966338;28;20085;-76
2022/01/31 07:56:29;;;;;;;7.43;1.40;;;;;;;4.80;61.14;100338.53;4966520;28;20039;-79
2022/01/31 07:58:55;;;;;;;2.97;1.30;;;;;;;4.80;61.43;100334.28;4965972;28;20525;-74
2022/01/31 08:01:20;;;;;;;9.10;2.45;;;;;;;4.92;61.84;100333.22;4966339;28;20046;-76
2022/01/31 08:03:47;;;;;;;6.60;1.90;;;;;;;4.89;61.32;100333.94;4966467;28;20039;-76
2022/01/31 08:06:14;;;;;;;10.00;2.95;;;;;;;4.95;60.92;100329.19;4966394;28;20045;-76
2022/01/31 08:08:41;;;;;;;7.88;2.35;;;;;;;4.95;60.94;100308.72;4967240;28;20749;-74
2022/01/31 08:11:06;;;;;;;11.05;2.72;;;;;;;5.06;60.61;100323.78;4969441;28;20115;-78
2022/01/31 08:13:33;;;;;;;8.90;2.63;;;;;;;5.17;61.31;100302.22;4954185;28;20088;-78
2022/01/31 08:16:02;;;;;;;5.32;1.58;;;;;;;5.28;59.45;100311.41;4952792;28;20039;-78
2022/01/31 08:18:29;;;;;;;11.93;2.45;;;;;;;5.17;59.80;100276.63;4954029;28;20572;-77
2022/01/31 08:20:54;;;;;;;7.35;2.40;;;;;;;5.48;59.77;100303.94;4969226;28;20497;-76
2022/01/31 08:23:20;;;;;;;6.57;2.35;;;;;;;5.28;59.02;100252.53;4969297;28;20031;-81
2022/01/31 08:25:48;;;;;;;9.00;2.40;;;;;;;5.82;59.50;100311.75;4972460;28;20088;-77
2022/01/31 08:28:16;;;;;;;7.22;1.83;;;;;;;5.82;58.37;100314.31;4975285;28;20026;-76
2022/01/31 08:31:02;;;;;;;8.38;2.22;;;;;;;5.83;59.23;100313.53;4991679;28;20022;-76
2022/01/31 08:36:09;;;;;;;4.97;2.03;;;;;;;5.92;57.53;100308.00;4991184;28;20037;-78
2022/01/31 08:38:38;;;;;;;13.27;2.92;;;;;;;6.03;57.23;100310.28;4992924;28;20030;-75
2022/01/31 08:41:04;;;;;;;16.90;2.17;;;;;;;5.98;57.32;100286.94;4992531;28;20026;-79
2022/01/31 08:43:30;;;;;;;12.00;2.90;;;;;;;6.25;58.14;100297.78;4974893;28;20034;-75
2022/01/31 08:45:56;;;;;;;11.00;2.05;;;;;;;6.10;56.90;100274.81;4992196;28;20034;-77
2022/01/31 08:48:24;;;;;;;7.10;2.20;;;;;;;6.15;56.16;100290.44;5010575;28;20030;-74
2022/01/31 08:50:50;;;;;;;4.28;1.90;;;;;;;6.11;55.87;100280.81;5011499;28;20140;-76
2022/01/31 08:53:16;;;;;;;9.82;2.42;;;;;;;6.13;55.94;100261.25;5011471;28;20116;-77
2022/01/31 08:55:48;;;;;;;5.00;2.17;;;;;;;6.18;55.06;100293.16;5011277;28;20084;-77
2022/01/31 08:58:14;;;;;;;11.40;2.17;;;;;;;6.19;56.53;100294.91;5011238;28;20538;-77
2022/01/31 09:00:40;;;;;;;12.68;2.22;;;;;;;5.93;55.82;100266.22;5011744;28;20108;-78
2022/01/31 09:05:38;;;;;;;7.15;1.80;;;;;;;6.27;53.01;100274.81;5010733;28;20546;-77
2022/01/31 09:08:04;;;;;;;11.35;1.92;;;;;;;6.46;53.22;100276.63;4988967;28;20460;-77
2022/01/31 09:10:29;;;;;;;8.13;2.03;;;;;;;6.42;53.17;100283.28;4972714;28;20034;-77
2022/01/31 09:12:55;;;;;;;15.90;2.22;;;;;;;6.54;52.19;100271.88;4972600;28;20065;-78
2022/01/31 09:15:21;;;;;;;12.65;4.15;;;;;;;6.42;53.73;100254.19;4988987;28;20036;-77
2022/01/31 09:17:47;;;;;;;10.60;2.78;;;;;;;6.51;53.20;100256.34;4972416;28;20042;-77
2022/01/31 09:20:13;;;;;;;3.15;1.52;;;;;;;6.58;52.11;100241.31;4987844;28;20132;-76
2022/01/31 09:22:39;;;;;;;6.25;1.80;;;;;;;6.56;51.36;100224.97;4988841;28;20045;-76
2022/01/31 09:25:05;;;;;;;8.00;2.15;;;;;;;6.59;51.75;100224.22;4986564;28;20031;-79
2022/01/31 09:27:30;;;;;;;7.82;2.35;;;;;;;6.68;51.73;100229.81;4976081;28;20130;-78
2022/01/31 09:29:57;;;;;;;4.10;1.50;;;;;;;6.69;50.25;100221.34;4971449;28;20110;-77
2022/01/31 09:32:24;;;;;;;7.00;2.58;;;;;;;6.39;50.86;100167.75;4969202;28;20143;-77
2022/01/31 09:34:51;;;;;;;11.70;2.53;;;;;;;7.15;50.32;100271.38;4968809;28;20122;-79
2022/01/31 09:37:19;;;;;;;6.65;1.80;;;;;;;7.11;50.39;100254.09;4969323;28;20035;-78
2022/01/31 09:39:46;;;;;;;10.85;2.00;;;;;;;7.05;50.50;100244.44;4986328;28;20045;-80
2022/01/31 09:42:15;;;;;;;6.28;1.90;;;;;;;7.16;50.08;100244.91;4973955;28;20042;-79
2022/01/31 09:50:17;;;;;;;5.82;1.63;;;;;;;7.25;48.13;100208.53;4913865;29;20464;-81
2022/01/31 09:52:43;;;;;;;5.72;2.00;;;;;;;7.48;48.52;100207.00;4932196;29;20048;-81
2022/01/31 09:55:09;;;;;;;4.43;1.67;;;;;;;7.19;47.80;100204.00;4931611;29;20502;-85
2022/01/31 09:57:34;;;;;;;8.38;2.10;;;;;;;7.36;47.75;100216.72;4910184;29;20139;-79
2022/01/31 10:00:00;;;;;;;3.33;1.58;;;;;;;7.32;47.51;100194.28;4907194;29;20504;-81
2022/01/31 10:02:28;;;;;;;25.67;13.82;;;;;;;7.37;46.87;100197.94;4912629;29;20135;-81
2022/01/31 10:04:53;;;;;;;5.88;2.60;;;;;;;7.10;46.08;100159.91;4891742;29;20551;-78
2022/01/31 10:07:21;;;;;;;5.95;2.20;;;;;;;7.63;46.63;100208.50;4902343;29;20024;-79
2022/01/31 10:09:48;;;;;;;8.98;2.53;;;;;;;7.44;46.85;100205.13;4900676;29;20054;-78
2022/01/31 10:17:38;;;;;;;3.45;1.40;;;;;;;7.81;43.87;100178.47;4912937;29;20071;-79
2022/01/31 10:20:22;;;;;;;5.35;1.80;;;;;;;7.76;43.99;100187.66;4912876;29;20048;-78
2022/01/31 10:22:47;;;;;;;5.40;1.75;;;;;;;8.03;43.94;100192.25;4897046;29;20032;-83
2022/01/31 10:25:16;;;;;;;5.70;1.90;;;;;;;7.57;43.93;100122.63;4961725;28;20516;-77
2022/01/31 10:27:52;;;;;;;9.70;1.80;;;;;;;7.74;43.04;100149.06;4953897;28;20026;-77
2022/01/31 10:30:24;;;;;;;9.93;2.20;;;;;;;7.67;41.82;100123.06;4974305;28;20042;-80
2022/01/31 10:32:53;;;;;;;3.72;1.65;;;;;;;7.90;43.85;100135.19;4979180;28;20026;-77
2022/01/31 10:35:23;;;;;;;8.90;2.80;;;;;;;8.14;43.15;100147.31;4988461;28;20053;-81
2022/01/31 10:37:54;;;;;;;8.10;1.80;;;;;;;8.26;42.35;100136.63;5006303;28;20034;-80
2022/01/31 10:54:08;;;;;;;6.63;1.55;;;;;;;8.57;40.37;100120.78;5004958;28;20178;-76
2022/01/31 10:56:41;;;;;;;4.72;1.58;;;;;;;8.39;40.66;100091.72;5010163;28;20424;-79
2022/01/31 10:59:10;;;;;;;7.47;3.22;;;;;;;8.62;40.68;100109.78;5008922;28;20105;-81
2022/01/31 11:01:38;;;;;;;4.72;2.13;;;;;;;8.32;39.11;100077.72;5010627;28;20029;-80
2022/01/31 11:04:10;;;;;;;3.35;1.70;;;;;;;8.48;39.21;100084.38;4992639;28;20133;-78
2022/01/31 11:06:37;;;;;;;6.13;1.70;;;;;;;8.73;40.46;100100.78;5006249;28;20076;-82
2022/01/31 11:09:07;;;;;;;4.72;1.48;;;;;;;8.38;39.22;100044.53;5004399;28;20030;-81
2022/01/31 11:11:36;;;;;;;6.63;2.80;;;;;;;8.50;38.47;100098.19;5006980;28;20030;-81
2022/01/31 11:14:03;;;;;;;4.10;1.75;;;;;;;8.74;38.74;100090.53;5010151;28;20087;-80
2022/01/31 11:16:29;;;;;;;5.53;1.67;;;;;;;8.76;38.53;100080.31;4988721;28;20072;-80
2022/01/31 11:19:00;;;;;;;3.88;1.60;;;;;;;8.67;38.81;100070.56;4992213;28;20029;-80
2022/01/31 11:21:29;;;;;;;8.05;2.15;;;;;;;8.48;37.74;100047.50;5010288;28;20022;-76
2022/01/31 11:24:01;;;;;;;5.53;1.70;;;;;;;8.71;37.24;100056.09;4992586;28;20026;-85
2022/01/31 11:26:36;;;;;;;5.82;1.75;;;;;;;8.62;36.97;100055.75;5010270;28;20069;-80
2022/01/31 11:29:04;;;;;;;3.33;1.58;;;;;;;8.74;36.98;100044.22;5010250;28;20033;-81
2022/01/31 11:31:30;;;;;;;7.03;1.63;;;;;;;8.69;33.96;100027.72;4989846;28;20030;-81
2022/01/31 11:33:58;;;;;;;6.53;1.45;;;;;;;8.86;34.49;100036.09;4993081;28;20035;-82
2022/01/31 11:36:24;;;;;;;5.18;1.52;;;;;;;8.83;38.19;100024.78;4993076;28;20433;-82
2022/01/31 11:38:50;;;;;;;5.68;1.67;;;;;;;8.46;39.09;100001.16;5010536;28;20083;-80
2022/01/31 11:41:17;;;;;;;8.50;3.03;;;;;;;8.97;38.43;100010.75;4992962;28;20030;-81
2022/01/31 11:43:52;;;;;;;4.45;1.60;;;;;;;8.53;38.74;100030.56;4994272;28;20034;-79
2022/01/31 11:46:24;;;;;;;4.75;1.95;;;;;;;8.61;38.92;100024.00;5014416;28;20026;-80
2022/01/31 11:48:52;;;;;;;7.43;1.80;;;;;;;8.83;38.67;100007.63;4993526;28;20120;-81
2022/01/31 11:51:18;;;;;;;6.95;1.80;;;;;;;8.68;38.14;100002.81;5014286;28;20045;-81
2022/01/31 11:53:44;;;;;;;5.13;1.90;;;;;;;8.56;38.50;99998.09;4996792;28;20025;-84
2022/01/31 11:56:20;;;;;;;7.03;2.55;;;;;;;8.60;38.20;99975.03;4996666;28;20124;-79
2022/01/31 11:58:51;;;;;;;7.20;1.90;;;;;;;8.72;38.01;100003.78;5014634;28;20108;-83
2022/01/31 12:01:19;;;;;;;7.45;2.10;;;;;;;8.72;38.03;99984.09;4996607;28;20026;-81
2022/01/31 12:03:54;;;;;;;8.85;2.92;;;;;;;8.69;37.41;100003.69;4996643;28;20061;-86